Alfred, Texas
Current Conditions -  °F | °C
As of 5:53 PM on Friday 28 Nov 2014 (Local Time) from KALI Reporting Station
Clear Clear  
Wind Chill: 67°   Ceiling: Unl
Heat Index: 67°   Visibility: 10mi
Dew Point: 55°   Wind: 10mph
Humidity: 66%   Direction: 140°SE
Pressure: 30.13"   Gusts: NA
Location:  27.6821°N, 98.1034°W
Report Text: KALI 282353Z AUTO 14009KT 10SM CLR 19/13 A3013 RMK AO2 SLP200 T01940128 10261 20194 56005 $
Loading
Personal Weather Stations






























Interactive Weather Map New forecast layout! Learn more

10-Day Weather Forecast

Advertisements
Track Severe Weather on mobile